sensor_id;sensor_type;location;lat;lon;timestamp;P1;durP1;ratioP1;P2;durP2;ratioP2
12445;SDS011;6287;50.984;7.022;2023-05-07T00:01:21;2.83;;;2.30;;
12445;SDS011;6287;50.984;7.022;2023-05-07T00:03:46;2.37;;;2.17;;
12445;SDS011;6287;50.984;7.022;2023-05-07T00:06:12;3.80;;;2.30;;
12445;SDS011;6287;50.984;7.022;2023-05-07T00:08:38;2.40;;;2.20;;
12445;SDS011;6287;50.984;7.022;2023-05-07T00:11:06;2.80;;;2.60;;
12445;SDS011;6287;50.984;7.022;2023-05-07T00:13:34;2.30;;;2.10;;
12445;SDS011;6287;50.984;7.022;2023-05-07T00:16:01;2.47;;;2.13;;
12445;SDS011;6287;50.984;7.022;2023-05-07T00:18:27;3.10;;;2.00;;
12445;SDS011;6287;50.984;7.022;2023-05-07T00:20:55;2.10;;;1.90;;
12445;SDS011;6287;50.984;7.022;2023-05-07T00:23:21;2.53;;;2.13;;
12445;SDS011;6287;50.984;7.022;2023-05-07T00:25:48;3.40;;;2.30;;
12445;SDS011;6287;50.984;7.022;2023-05-07T00:28:13;2.13;;;1.90;;
12445;SDS011;6287;50.984;7.022;2023-05-07T00:30:39;2.07;;;1.87;;
12445;SDS011;6287;50.984;7.022;2023-05-07T00:33:09;2.37;;;2.17;;
12445;SDS011;6287;50.984;7.022;2023-05-07T00:35:37;2.50;;;1.93;;
12445;SDS011;6287;50.984;7.022;2023-05-07T00:38:02;2.20;;;2.00;;
12445;SDS011;6287;50.984;7.022;2023-05-07T00:40:28;2.33;;;2.13;;
12445;SDS011;6287;50.984;7.022;2023-05-07T00:42:53;2.83;;;2.00;;
12445;SDS011;6287;50.984;7.022;2023-05-07T00:45:21;2.50;;;2.30;;
12445;SDS011;6287;50.984;7.022;2023-05-07T00:48:02;2.20;;;2.00;;
12445;SDS011;6287;50.984;7.022;2023-05-07T00:50:28;2.17;;;1.97;;
12445;SDS011;6287;50.984;7.022;2023-05-07T00:52:54;2.37;;;2.10;;
12445;SDS011;6287;50.984;7.022;2023-05-07T00:55:21;2.30;;;2.20;;
12445;SDS011;6287;50.984;7.022;2023-05-07T00:57:47;3.40;;;2.13;;
12445;SDS011;6287;50.984;7.022;2023-05-07T01:00:14;1.97;;;1.80;;
12445;SDS011;6287;50.984;7.022;2023-05-07T01:02:43;2.50;;;2.33;;
12445;SDS011;6287;50.984;7.022;2023-05-07T01:05:10;2.70;;;2.13;;
12445;SDS011;6287;50.984;7.022;2023-05-07T01:07:43;2.30;;;1.90;;
12445;SDS011;6287;50.984;7.022;2023-05-07T01:10:09;2.27;;;1.80;;
12445;SDS011;6287;50.984;7.022;2023-05-07T01:12:36;1.97;;;1.77;;
12445;SDS011;6287;50.984;7.022;2023-05-07T01:15:03;1.77;;;1.67;;
12445;SDS011;6287;50.984;7.022;2023-05-07T01:17:35;2.13;;;1.57;;
12445;SDS011;6287;50.984;7.022;2023-05-07T01:20:03;3.17;;;2.10;;
12445;SDS011;6287;50.984;7.022;2023-05-07T01:22:37;1.77;;;1.63;;
12445;SDS011;6287;50.984;7.022;2023-05-07T01:25:03;2.00;;;1.77;;
12445;SDS011;6287;50.984;7.022;2023-05-07T01:27:35;1.77;;;1.67;;
12445;SDS011;6287;50.984;7.022;2023-05-07T01:30:08;1.67;;;1.50;;
12445;SDS011;6287;50.984;7.022;2023-05-07T01:35:12;1.60;;;1.50;;
12445;SDS011;6287;50.984;7.022;2023-05-07T01:37:46;1.60;;;1.50;;
12445;SDS011;6287;50.984;7.022;2023-05-07T01:40:15;1.70;;;1.60;;
12445;SDS011;6287;50.984;7.022;2023-05-07T01:42:42;2.67;;;1.97;;
12445;SDS011;6287;50.984;7.022;2023-05-07T01:45:09;2.97;;;1.80;;
12445;SDS011;6287;50.984;7.022;2023-05-07T01:47:35;3.23;;;1.30;;
12445;SDS011;6287;50.984;7.022;2023-05-07T01:50:02;1.60;;;1.50;;
12445;SDS011;6287;50.984;7.022;2023-05-07T01:52:35;1.43;;;1.33;;
12445;SDS011;6287;50.984;7.022;2023-05-07T01:55:08;2.13;;;1.60;;
12445;SDS011;6287;50.984;7.022;2023-05-07T01:57:36;1.70;;;1.60;;
12445;SDS011;6287;50.984;7.022;2023-05-07T02:00:06;2.00;;;1.67;;
12445;SDS011;6287;50.984;7.022;2023-05-07T02:02:33;1.57;;;1.47;;
12445;SDS011;6287;50.984;7.022;2023-05-07T02:05:01;1.90;;;1.50;;
12445;SDS011;6287;50.984;7.022;2023-05-07T02:07:27;1.77;;;1.60;;
12445;SDS011;6287;50.984;7.022;2023-05-07T02:09:53;1.83;;;1.73;;
12445;SDS011;6287;50.984;7.022;2023-05-07T02:12:21;1.57;;;1.47;;
12445;SDS011;6287;50.984;7.022;2023-05-07T02:14:48;2.30;;;1.63;;
12445;SDS011;6287;50.984;7.022;2023-05-07T02:17:16;1.90;;;1.30;;
12445;SDS011;6287;50.984;7.022;2023-05-07T02:19:44;1.63;;;1.30;;
12445;SDS011;6287;50.984;7.022;2023-05-07T02:22:09;2.70;;;1.80;;
12445;SDS011;6287;50.984;7.022;2023-05-07T02:24:35;1.53;;;1.50;;
12445;SDS011;6287;50.984;7.022;2023-05-07T02:27:03;1.67;;;1.40;;
12445;SDS011;6287;50.984;7.022;2023-05-07T02:29:30;1.60;;;1.50;;
12445;SDS011;6287;50.984;7.022;2023-05-07T02:31:56;2.17;;;1.50;;
12445;SDS011;6287;50.984;7.022;2023-05-07T02:34:24;1.80;;;1.70;;
12445;SDS011;6287;50.984;7.022;2023-05-07T02:36:49;2.50;;;1.50;;
12445;SDS011;6287;50.984;7.022;2023-05-07T02:39:17;2.10;;;1.80;;
12445;SDS011;6287;50.984;7.022;2023-05-07T02:41:45;1.47;;;1.37;;
12445;SDS011;6287;50.984;7.022;2023-05-07T02:44:11;1.80;;;1.70;;
12445;SDS011;6287;50.984;7.022;2023-05-07T02:46:36;2.00;;;1.80;;
12445;SDS011;6287;50.984;7.022;2023-05-07T02:49:04;3.63;;;1.80;;
12445;SDS011;6287;50.984;7.022;2023-05-07T02:51:32;2.37;;;1.63;;
12445;SDS011;6287;50.984;7.022;2023-05-07T02:53:57;2.77;;;1.47;;
12445;SDS011;6287;50.984;7.022;2023-05-07T02:56:25;1.70;;;1.60;;
12445;SDS011;6287;50.984;7.022;2023-05-07T02:58:54;2.60;;;1.70;;
12445;SDS011;6287;50.984;7.022;2023-05-07T03:01:21;1.60;;;1.50;;
12445;SDS011;6287;50.984;7.022;2023-05-07T03:03:50;2.03;;;1.40;;
12445;SDS011;6287;50.984;7.022;2023-05-07T03:06:15;1.70;;;1.60;;
12445;SDS011;6287;50.984;7.022;2023-05-07T03:08:41;1.77;;;1.60;;
12445;SDS011;6287;50.984;7.022;2023-05-07T03:11:07;1.47;;;1.37;;
12445;SDS011;6287;50.984;7.022;2023-05-07T03:13:34;1.80;;;1.70;;
12445;SDS011;6287;50.984;7.022;2023-05-07T03:16:02;1.73;;;1.53;;
12445;SDS011;6287;50.984;7.022;2023-05-07T03:18:28;1.73;;;1.60;;
12445;SDS011;6287;50.984;7.022;2023-05-07T03:20:53;1.83;;;1.73;;
12445;SDS011;6287;50.984;7.022;2023-05-07T03:23:25;1.80;;;1.70;;
12445;SDS011;6287;50.984;7.022;2023-05-07T03:25:50;2.67;;;1.67;;
12445;SDS011;6287;50.984;7.022;2023-05-07T03:28:18;1.47;;;1.40;;
12445;SDS011;6287;50.984;7.022;2023-05-07T03:30:43;1.90;;;1.80;;
12445;SDS011;6287;50.984;7.022;2023-05-07T03:33:11;2.87;;;1.53;;
12445;SDS011;6287;50.984;7.022;2023-05-07T03:35:41;2.70;;;1.70;;
12445;SDS011;6287;50.984;7.022;2023-05-07T03:38:09;2.20;;;1.50;;
12445;SDS011;6287;50.984;7.022;2023-05-07T03:40:35;2.17;;;1.63;;
12445;SDS011;6287;50.984;7.022;2023-05-07T03:43:02;1.73;;;1.63;;
12445;SDS011;6287;50.984;7.022;2023-05-07T03:45:28;1.47;;;1.20;;
12445;SDS011;6287;50.984;7.022;2023-05-07T03:47:54;6.47;;;1.70;;
12445;SDS011;6287;50.984;7.022;2023-05-07T03:50:19;1.70;;;1.60;;
12445;SDS011;6287;50.984;7.022;2023-05-07T03:52:45;1.50;;;1.40;;
12445;SDS011;6287;50.984;7.022;2023-05-07T03:55:10;1.70;;;1.60;;
12445;SDS011;6287;50.984;7.022;2023-05-07T03:57:38;1.60;;;1.50;;
12445;SDS011;6287;50.984;7.022;2023-05-07T04:00:04;1.43;;;1.40;;
12445;SDS011;6287;50.984;7.022;2023-05-07T04:02:33;1.90;;;1.60;;
12445;SDS011;6287;50.984;7.022;2023-05-07T04:05:01;1.60;;;1.50;;
12445;SDS011;6287;50.984;7.022;2023-05-07T04:07:27;1.73;;;1.63;;
12445;SDS011;6287;50.984;7.022;2023-05-07T04:09:54;1.60;;;1.50;;
12445;SDS011;6287;50.984;7.022;2023-05-07T04:12:20;1.87;;;1.77;;
12445;SDS011;6287;50.984;7.022;2023-05-07T04:14:48;2.03;;;1.83;;
12445;SDS011;6287;50.984;7.022;2023-05-07T04:17:13;1.40;;;1.30;;
12445;SDS011;6287;50.984;7.022;2023-05-07T04:19:39;2.43;;;1.70;;
12445;SDS011;6287;50.984;7.022;2023-05-07T04:22:09;2.13;;;1.57;;
12445;SDS011;6287;50.984;7.022;2023-05-07T04:24:35;1.60;;;1.50;;
12445;SDS011;6287;50.984;7.022;2023-05-07T04:27:00;2.00;;;1.90;;
12445;SDS011;6287;50.984;7.022;2023-05-07T04:29:28;3.90;;;1.90;;
12445;SDS011;6287;50.984;7.022;2023-05-07T04:31:54;1.87;;;1.63;;
12445;SDS011;6287;50.984;7.022;2023-05-07T04:34:21;2.30;;;1.80;;
12445;SDS011;6287;50.984;7.022;2023-05-07T04:36:49;1.77;;;1.67;;
12445;SDS011;6287;50.984;7.022;2023-05-07T04:39:15;1.97;;;1.60;;
12445;SDS011;6287;50.984;7.022;2023-05-07T04:41:41;2.13;;;1.93;;
12445;SDS011;6287;50.984;7.022;2023-05-07T04:44:06;2.27;;;2.07;;
12445;SDS011;6287;50.984;7.022;2023-05-07T04:46:34;1.97;;;1.57;;
12445;SDS011;6287;50.984;7.022;2023-05-07T04:49:00;1.93;;;1.77;;
12445;SDS011;6287;50.984;7.022;2023-05-07T04:51:25;1.80;;;1.70;;
12445;SDS011;6287;50.984;7.022;2023-05-07T04:53:51;1.67;;;1.57;;
12445;SDS011;6287;50.984;7.022;2023-05-07T04:56:19;2.27;;;2.07;;
12445;SDS011;6287;50.984;7.022;2023-05-07T04:58:45;2.10;;;1.90;;
12445;SDS011;6287;50.984;7.022;2023-05-07T05:01:13;2.47;;;1.83;;
12445;SDS011;6287;50.984;7.022;2023-05-07T05:03:38;2.70;;;1.60;;
12445;SDS011;6287;50.984;7.022;2023-05-07T05:06:04;2.00;;;1.80;;
12445;SDS011;6287;50.984;7.022;2023-05-07T05:08:32;1.70;;;1.60;;
12445;SDS011;6287;50.984;7.022;2023-05-07T05:10:58;4.00;;;1.77;;
12445;SDS011;6287;50.984;7.022;2023-05-07T05:13:26;1.83;;;1.63;;
12445;SDS011;6287;50.984;7.022;2023-05-07T05:15:52;2.37;;;1.77;;
12445;SDS011;6287;50.984;7.022;2023-05-07T05:18:23;5.10;;;2.97;;
12445;SDS011;6287;50.984;7.022;2023-05-07T05:20:48;2.30;;;1.70;;
12445;SDS011;6287;50.984;7.022;2023-05-07T05:23:18;2.33;;;2.00;;
12445;SDS011;6287;50.984;7.022;2023-05-07T05:25:44;2.10;;;1.40;;
12445;SDS011;6287;50.984;7.022;2023-05-07T05:28:10;1.80;;;1.63;;
12445;SDS011;6287;50.984;7.022;2023-05-07T05:30:36;2.00;;;1.80;;
12445;SDS011;6287;50.984;7.022;2023-05-07T05:33:01;1.70;;;1.60;;
12445;SDS011;6287;50.984;7.022;2023-05-07T05:35:27;1.70;;;1.50;;
12445;SDS011;6287;50.984;7.022;2023-05-07T05:37:55;1.60;;;1.50;;
12445;SDS011;6287;50.984;7.022;2023-05-07T05:40:23;1.20;;;1.20;;
12445;SDS011;6287;50.984;7.022;2023-05-07T05:42:48;1.47;;;1.37;;
12445;SDS011;6287;50.984;7.022;2023-05-07T05:45:16;1.70;;;1.57;;
12445;SDS011;6287;50.984;7.022;2023-05-07T05:47:46;2.33;;;1.80;;
12445;SDS011;6287;50.984;7.022;2023-05-07T05:50:15;1.83;;;1.60;;
12445;SDS011;6287;50.984;7.022;2023-05-07T05:52:40;1.80;;;1.70;;
12445;SDS011;6287;50.984;7.022;2023-05-07T05:55:07;1.40;;;1.30;;
12445;SDS011;6287;50.984;7.022;2023-05-07T05:57:33;1.80;;;1.40;;
12445;SDS011;6287;50.984;7.022;2023-05-07T05:59:59;1.13;;;1.10;;
12445;SDS011;6287;50.984;7.022;2023-05-07T06:02:29;1.67;;;1.57;;
12445;SDS011;6287;50.984;7.022;2023-05-07T06:04:54;1.70;;;1.50;;
12445;SDS011;6287;50.984;7.022;2023-05-07T06:07:20;1.67;;;1.50;;
12445;SDS011;6287;50.984;7.022;2023-05-07T06:09:46;2.30;;;1.80;;
12445;SDS011;6287;50.984;7.022;2023-05-07T06:12:11;1.50;;;1.40;;
12445;SDS011;6287;50.984;7.022;2023-05-07T06:14:39;1.50;;;1.40;;
12445;SDS011;6287;50.984;7.022;2023-05-07T06:17:07;1.33;;;1.23;;
12445;SDS011;6287;50.984;7.022;2023-05-07T06:19:33;1.77;;;1.67;;
12445;SDS011;6287;50.984;7.022;2023-05-07T06:22:03;1.92;;;1.73;;
12445;SDS011;6287;50.984;7.022;2023-05-07T06:24:28;1.27;;;1.17;;
12445;SDS011;6287;50.984;7.022;2023-05-07T06:26:59;1.13;;;1.10;;
12445;SDS011;6287;50.984;7.022;2023-05-07T06:29:24;2.93;;;1.30;;
12445;SDS011;6287;50.984;7.022;2023-05-07T06:31:55;1.83;;;1.30;;
12445;SDS011;6287;50.984;7.022;2023-05-07T06:34:20;2.45;;;1.30;;
12445;SDS011;6287;50.984;7.022;2023-05-07T06:36:48;1.38;;;1.27;;
12445;SDS011;6287;50.984;7.022;2023-05-07T06:39:19;1.70;;;1.60;;
12445;SDS011;6287;50.984;7.022;2023-05-07T06:41:44;3.95;;;1.35;;
12445;SDS011;6287;50.984;7.022;2023-05-07T06:44:12;4.03;;;1.33;;
12445;SDS011;6287;50.984;7.022;2023-05-07T06:46:42;1.60;;;1.20;;
12445;SDS011;6287;50.984;7.022;2023-05-07T06:49:08;2.23;;;1.30;;
12445;SDS011;6287;50.984;7.022;2023-05-07T06:51:36;1.30;;;1.10;;
12445;SDS011;6287;50.984;7.022;2023-05-07T06:54:02;1.52;;;1.42;;
12445;SDS011;6287;50.984;7.022;2023-05-07T06:56:29;1.30;;;1.20;;
12445;SDS011;6287;50.984;7.022;2023-05-07T06:58:55;2.63;;;1.20;;
12445;SDS011;6287;50.984;7.022;2023-05-07T07:01:25;2.00;;;1.10;;
12445;SDS011;6287;50.984;7.022;2023-05-07T07:03:53;1.52;;;1.35;;
12445;SDS011;6287;50.984;7.022;2023-05-07T07:06:21;1.25;;;1.15;;
12445;SDS011;6287;50.984;7.022;2023-05-07T07:08:46;1.67;;;1.10;;
12445;SDS011;6287;50.984;7.022;2023-05-07T07:11:15;1.20;;;1.10;;
12445;SDS011;6287;50.984;7.022;2023-05-07T07:13:43;1.48;;;1.17;;
12445;SDS011;6287;50.984;7.022;2023-05-07T07:16:10;3.13;;;1.30;;
12445;SDS011;6287;50.984;7.022;2023-05-07T07:18:38;0.88;;;0.85;;
12445;SDS011;6287;50.984;7.022;2023-05-07T07:21:04;1.83;;;1.20;;
12445;SDS011;6287;50.984;7.022;2023-05-07T07:23:32;1.08;;;1.02;;
12445;SDS011;6287;50.984;7.022;2023-05-07T07:26:05;1.02;;;1.02;;
12445;SDS011;6287;50.984;7.022;2023-05-07T07:28:34;2.60;;;1.00;;
12445;SDS011;6287;50.984;7.022;2023-05-07T07:31:09;0.90;;;0.90;;
12445;SDS011;6287;50.984;7.022;2023-05-07T07:33:34;1.17;;;1.00;;
12445;SDS011;6287;50.984;7.022;2023-05-07T07:36:00;1.00;;;1.00;;
12445;SDS011;6287;50.984;7.022;2023-05-07T07:38:25;0.70;;;0.70;;
12445;SDS011;6287;50.984;7.022;2023-05-07T07:40:53;1.92;;;1.02;;
12445;SDS011;6287;50.984;7.022;2023-05-07T07:43:21;2.42;;;0.90;;
12445;SDS011;6287;50.984;7.022;2023-05-07T07:45:49;1.33;;;0.88;;
12445;SDS011;6287;50.984;7.022;2023-05-07T07:48:14;1.30;;;1.20;;
12445;SDS011;6287;50.984;7.022;2023-05-07T07:50:42;0.90;;;0.90;;
12445;SDS011;6287;50.984;7.022;2023-05-07T07:53:10;1.80;;;1.10;;
12445;SDS011;6287;50.984;7.022;2023-05-07T07:55:38;0.93;;;0.90;;
12445;SDS011;6287;50.984;7.022;2023-05-07T07:58:07;1.20;;;1.10;;
12445;SDS011;6287;50.984;7.022;2023-05-07T08:00:32;1.00;;;1.00;;
12445;SDS011;6287;50.984;7.022;2023-05-07T08:03:00;2.45;;;0.90;;
12445;SDS011;6287;50.984;7.022;2023-05-07T08:05:31;2.28;;;1.02;;
12445;SDS011;6287;50.984;7.022;2023-05-07T08:07:56;0.80;;;0.80;;
12445;SDS011;6287;50.984;7.022;2023-05-07T08:10:24;1.17;;;1.08;;
12445;SDS011;6287;50.984;7.022;2023-05-07T08:12:50;1.90;;;0.82;;
12445;SDS011;6287;50.984;7.022;2023-05-07T08:15:16;1.50;;;0.90;;
12445;SDS011;6287;50.984;7.022;2023-05-07T08:17:44;0.90;;;0.90;;
12445;SDS011;6287;50.984;7.022;2023-05-07T08:20:10;0.90;;;0.90;;
12445;SDS011;6287;50.984;7.022;2023-05-07T08:22:38;0.80;;;0.80;;
12445;SDS011;6287;50.984;7.022;2023-05-07T08:25:06;1.10;;;1.00;;
12445;SDS011;6287;50.984;7.022;2023-05-07T08:27:31;1.00;;;0.90;;
12445;SDS011;6287;50.984;7.022;2023-05-07T08:29:57;1.50;;;0.93;;
12445;SDS011;6287;50.984;7.022;2023-05-07T08:32:25;1.42;;;1.00;;
12445;SDS011;6287;50.984;7.022;2023-05-07T08:34:51;1.10;;;1.00;;
12445;SDS011;6287;50.984;7.022;2023-05-07T08:37:18;1.63;;;0.80;;
12445;SDS011;6287;50.984;7.022;2023-05-07T08:39:44;1.13;;;1.13;;
12445;SDS011;6287;50.984;7.022;2023-05-07T08:42:09;1.02;;;1.02;;
12445;SDS011;6287;50.984;7.022;2023-05-07T08:44:37;2.05;;;0.85;;
12445;SDS011;6287;50.984;7.022;2023-05-07T08:47:06;3.22;;;1.10;;
12445;SDS011;6287;50.984;7.022;2023-05-07T08:49:35;0.93;;;0.80;;
12445;SDS011;6287;50.984;7.022;2023-05-07T08:52:06;1.27;;;1.08;;
12445;SDS011;6287;50.984;7.022;2023-05-07T08:54:32;1.23;;;1.00;;
12445;SDS011;6287;50.984;7.022;2023-05-07T08:57:01;0.90;;;0.90;;
12445;SDS011;6287;50.984;7.022;2023-05-07T08:59:27;1.45;;;1.02;;
12445;SDS011;6287;50.984;7.022;2023-05-07T09:01:55;0.93;;;0.93;;
12445;SDS011;6287;50.984;7.022;2023-05-07T09:04:21;1.92;;;1.00;;
12445;SDS011;6287;50.984;7.022;2023-05-07T09:06:48;0.90;;;0.90;;
12445;SDS011;6287;50.984;7.022;2023-05-07T09:09:16;0.80;;;0.70;;
12445;SDS011;6287;50.984;7.022;2023-05-07T09:11:44;1.55;;;1.05;;
12445;SDS011;6287;50.984;7.022;2023-05-07T09:14:12;0.90;;;0.90;;
12445;SDS011;6287;50.984;7.022;2023-05-07T09:16:38;1.60;;;0.93;;
12445;SDS011;6287;50.984;7.022;2023-05-07T09:19:04;0.85;;;0.85;;
12445;SDS011;6287;50.984;7.022;2023-05-07T09:21:29;1.15;;;0.90;;
12445;SDS011;6287;50.984;7.022;2023-05-07T09:23:55;1.55;;;0.68;;
12445;SDS011;6287;50.984;7.022;2023-05-07T09:26:21;1.15;;;0.90;;
12445;SDS011;6287;50.984;7.022;2023-05-07T09:28:47;1.98;;;0.88;;
12445;SDS011;6287;50.984;7.022;2023-05-07T09:31:18;1.10;;;0.90;;
12445;SDS011;6287;50.984;7.022;2023-05-07T09:33:43;0.88;;;0.88;;
12445;SDS011;6287;50.984;7.022;2023-05-07T09:36:09;1.23;;;0.90;;
12445;SDS011;6287;50.984;7.022;2023-05-07T09:38:39;0.75;;;0.75;;
12445;SDS011;6287;50.984;7.022;2023-05-07T09:43:32;0.82;;;0.82;;
12445;SDS011;6287;50.984;7.022;2023-05-07T09:46:14;0.65;;;0.65;;
12445;SDS011;6287;50.984;7.022;2023-05-07T09:48:42;0.85;;;0.85;;
12445;SDS011;6287;50.984;7.022;2023-05-07T09:51:33;1.45;;;0.98;;
12445;SDS011;6287;50.984;7.022;2023-05-07T09:54:07;0.85;;;0.85;;
12445;SDS011;6287;50.984;7.022;2023-05-07T09:56:32;0.90;;;0.90;;
12445;SDS011;6287;50.984;7.022;2023-05-07T09:58:59;0.90;;;0.90;;
12445;SDS011;6287;50.984;7.022;2023-05-07T10:01:25;0.90;;;0.80;;
12445;SDS011;6287;50.984;7.022;2023-05-07T10:03:54;0.77;;;0.77;;
12445;SDS011;6287;50.984;7.022;2023-05-07T10:06:24;0.77;;;0.77;;
12445;SDS011;6287;50.984;7.022;2023-05-07T10:08:55;1.02;;;0.90;;
12445;SDS011;6287;50.984;7.022;2023-05-07T10:11:24;0.75;;;0.75;;
12445;SDS011;6287;50.984;7.022;2023-05-07T10:13:49;0.98;;;0.93;;
12445;SDS011;6287;50.984;7.022;2023-05-07T10:16:17;0.80;;;0.80;;
12445;SDS011;6287;50.984;7.022;2023-05-07T10:18:46;0.70;;;0.70;;
12445;SDS011;6287;50.984;7.022;2023-05-07T10:21:16;2.40;;;0.70;;
12445;SDS011;6287;50.984;7.022;2023-05-07T10:23:43;0.73;;;0.73;;
12445;SDS011;6287;50.984;7.022;2023-05-07T10:26:17;0.77;;;0.77;;
12445;SDS011;6287;50.984;7.022;2023-05-07T10:28:46;0.63;;;0.63;;
12445;SDS011;6287;50.984;7.022;2023-05-07T10:34:08;1.05;;;1.00;;
12445;SDS011;6287;50.984;7.022;2023-05-07T10:36:37;0.70;;;0.70;;
12445;SDS011;6287;50.984;7.022;2023-05-07T10:39:04;0.68;;;0.68;;
12445;SDS011;6287;50.984;7.022;2023-05-07T10:41:33;0.90;;;0.90;;
12445;SDS011;6287;50.984;7.022;2023-05-07T10:44:04;2.33;;;0.75;;
12445;SDS011;6287;50.984;7.022;2023-05-07T10:46:29;2.00;;;0.77;;
12445;SDS011;6287;50.984;7.022;2023-05-07T10:51:26;0.57;;;0.57;;
12445;SDS011;6287;50.984;7.022;2023-05-07T10:56:39;0.68;;;0.68;;
12445;SDS011;6287;50.984;7.022;2023-05-07T11:04:43;0.75;;;0.75;;
12445;SDS011;6287;50.984;7.022;2023-05-07T11:15:03;0.70;;;0.70;;
12445;SDS011;6287;50.984;7.022;2023-05-07T11:17:32;0.98;;;0.73;;
12445;SDS011;6287;50.984;7.022;2023-05-07T11:19:59;0.63;;;0.63;;
12445;SDS011;6287;50.984;7.022;2023-05-07T11:25:04;1.27;;;0.82;;
12445;SDS011;6287;50.984;7.022;2023-05-07T11:27:34;0.70;;;0.70;;
12445;SDS011;6287;50.984;7.022;2023-05-07T11:30:02;1.23;;;0.60;;
12445;SDS011;6287;50.984;7.022;2023-05-07T11:32:31;0.60;;;0.60;;
12445;SDS011;6287;50.984;7.022;2023-05-07T11:34:58;0.50;;;0.50;;
12445;SDS011;6287;50.984;7.022;2023-05-07T11:37:25;0.98;;;0.70;;
12445;SDS011;6287;50.984;7.022;2023-05-07T11:40:13;1.35;;;0.70;;
12445;SDS011;6287;50.984;7.022;2023-05-07T11:42:40;1.10;;;0.80;;
12445;SDS011;6287;50.984;7.022;2023-05-07T11:45:08;0.70;;;0.70;;
12445;SDS011;6287;50.984;7.022;2023-05-07T11:47:41;1.33;;;0.85;;
12445;SDS011;6287;50.984;7.022;2023-05-07T11:50:09;0.90;;;0.70;;
12445;SDS011;6287;50.984;7.022;2023-05-07T11:52:39;0.55;;;0.55;;
12445;SDS011;6287;50.984;7.022;2023-05-07T11:55:14;0.80;;;0.80;;
12445;SDS011;6287;50.984;7.022;2023-05-07T11:57:46;0.88;;;0.88;;
12445;SDS011;6287;50.984;7.022;2023-05-07T12:00:15;2.30;;;0.80;;
12445;SDS011;6287;50.984;7.022;2023-05-07T12:02:41;0.73;;;0.73;;
12445;SDS011;6287;50.984;7.022;2023-05-07T12:05:10;0.77;;;0.70;;
12445;SDS011;6287;50.984;7.022;2023-05-07T12:07:37;0.77;;;0.73;;
12445;SDS011;6287;50.984;7.022;2023-05-07T12:10:06;0.82;;;0.82;;
12445;SDS011;6287;50.984;7.022;2023-05-07T12:12:38;0.77;;;0.75;;
12445;SDS011;6287;50.984;7.022;2023-05-07T12:15:07;1.10;;;1.00;;
12445;SDS011;6287;50.984;7.022;2023-05-07T12:17:33;0.85;;;0.85;;
12445;SDS011;6287;50.984;7.022;2023-05-07T12:20:01;0.80;;;0.80;;
12445;SDS011;6287;50.984;7.022;2023-05-07T12:22:28;0.90;;;0.90;;
12445;SDS011;6287;50.984;7.022;2023-05-07T12:24:57;0.80;;;0.80;;
12445;SDS011;6287;50.984;7.022;2023-05-07T12:27:23;0.77;;;0.77;;
12445;SDS011;6287;50.984;7.022;2023-05-07T12:29:51;1.38;;;0.90;;
12445;SDS011;6287;50.984;7.022;2023-05-07T12:32:16;0.80;;;0.80;;
12445;SDS011;6287;50.984;7.022;2023-05-07T12:34:46;0.77;;;0.68;;
12445;SDS011;6287;50.984;7.022;2023-05-07T12:37:14;0.98;;;0.82;;
12445;SDS011;6287;50.984;7.022;2023-05-07T12:40:02;0.68;;;0.60;;
12445;SDS011;6287;50.984;7.022;2023-05-07T12:42:35;0.60;;;0.60;;
12445;SDS011;6287;50.984;7.022;2023-05-07T12:45:07;1.15;;;0.88;;
12445;SDS011;6287;50.984;7.022;2023-05-07T12:47:34;1.17;;;0.75;;
12445;SDS011;6287;50.984;7.022;2023-05-07T12:50:00;0.80;;;0.73;;
12445;SDS011;6287;50.984;7.022;2023-05-07T12:52:29;1.00;;;0.90;;
12445;SDS011;6287;50.984;7.022;2023-05-07T12:54:56;1.50;;;0.80;;
12445;SDS011;6287;50.984;7.022;2023-05-07T12:57:22;1.17;;;0.90;;
12445;SDS011;6287;50.984;7.022;2023-05-07T12:59:48;0.60;;;0.60;;
12445;SDS011;6287;50.984;7.022;2023-05-07T13:02:15;0.73;;;0.73;;
12445;SDS011;6287;50.984;7.022;2023-05-07T13:04:43;0.75;;;0.73;;
12445;SDS011;6287;50.984;7.022;2023-05-07T13:07:12;0.77;;;0.75;;
12445;SDS011;6287;50.984;7.022;2023-05-07T13:09:42;1.85;;;0.80;;
12445;SDS011;6287;50.984;7.022;2023-05-07T13:12:08;1.27;;;0.95;;
12445;SDS011;6287;50.984;7.022;2023-05-07T13:14:34;0.70;;;0.70;;
12445;SDS011;6287;50.984;7.022;2023-05-07T13:16:59;0.93;;;0.93;;
12445;SDS011;6287;50.984;7.022;2023-05-07T13:19:25;0.73;;;0.73;;
12445;SDS011;6287;50.984;7.022;2023-05-07T13:21:50;0.73;;;0.73;;
12445;SDS011;6287;50.984;7.022;2023-05-07T13:24:18;0.75;;;0.75;;
12445;SDS011;6287;50.984;7.022;2023-05-07T13:26:46;1.17;;;0.80;;
12445;SDS011;6287;50.984;7.022;2023-05-07T13:29:13;0.75;;;0.75;;
12445;SDS011;6287;50.984;7.022;2023-05-07T13:31:39;4.15;;;1.27;;
12445;SDS011;6287;50.984;7.022;2023-05-07T13:34:08;0.90;;;0.90;;
12445;SDS011;6287;50.984;7.022;2023-05-07T13:36:34;1.40;;;0.82;;
12445;SDS011;6287;50.984;7.022;2023-05-07T13:39:04;0.73;;;0.73;;
12445;SDS011;6287;50.984;7.022;2023-05-07T13:41:33;1.33;;;1.13;;
12445;SDS011;6287;50.984;7.022;2023-05-07T13:44:01;1.83;;;0.90;;
12445;SDS011;6287;50.984;7.022;2023-05-07T13:46:32;0.90;;;0.90;;
12445;SDS011;6287;50.984;7.022;2023-05-07T13:48:57;0.70;;;0.70;;
12445;SDS011;6287;50.984;7.022;2023-05-07T13:51:25;1.25;;;0.90;;
12445;SDS011;6287;50.984;7.022;2023-05-07T13:53:53;0.70;;;0.70;;
12445;SDS011;6287;50.984;7.022;2023-05-07T13:56:19;0.90;;;0.90;;
12445;SDS011;6287;50.984;7.022;2023-05-07T13:58:48;2.63;;;0.90;;
12445;SDS011;6287;50.984;7.022;2023-05-07T14:01:16;2.30;;;1.00;;
12445;SDS011;6287;50.984;7.022;2023-05-07T14:03:41;1.23;;;0.90;;
12445;SDS011;6287;50.984;7.022;2023-05-07T14:06:09;0.90;;;0.90;;
12445;SDS011;6287;50.984;7.022;2023-05-07T14:08:37;0.80;;;0.80;;
12445;SDS011;6287;50.984;7.022;2023-05-07T14:11:05;0.90;;;0.70;;
12445;SDS011;6287;50.984;7.022;2023-05-07T14:13:33;1.20;;;0.80;;
12445;SDS011;6287;50.984;7.022;2023-05-07T14:15:59;0.70;;;0.70;;
12445;SDS011;6287;50.984;7.022;2023-05-07T14:18:28;0.80;;;0.80;;
12445;SDS011;6287;50.984;7.022;2023-05-07T14:20:54;0.90;;;0.90;;
12445;SDS011;6287;50.984;7.022;2023-05-07T14:23:19;1.10;;;1.00;;
12445;SDS011;6287;50.984;7.022;2023-05-07T14:25:53;0.82;;;0.82;;
12445;SDS011;6287;50.984;7.022;2023-05-07T14:28:24;1.00;;;1.00;;
12445;SDS011;6287;50.984;7.022;2023-05-07T14:30:50;1.17;;;1.00;;
12445;SDS011;6287;50.984;7.022;2023-05-07T14:33:17;1.30;;;1.20;;
12445;SDS011;6287;50.984;7.022;2023-05-07T14:35:42;1.80;;;1.60;;
12445;SDS011;6287;50.984;7.022;2023-05-07T14:38:15;1.55;;;1.40;;
12445;SDS011;6287;50.984;7.022;2023-05-07T14:40:40;2.15;;;1.38;;
12445;SDS011;6287;50.984;7.022;2023-05-07T14:43:06;4.55;;;1.45;;
12445;SDS011;6287;50.984;7.022;2023-05-07T14:45:31;2.17;;;1.33;;
12445;SDS011;6287;50.984;7.022;2023-05-07T14:47:57;2.45;;;1.48;;
12445;SDS011;6287;50.984;7.022;2023-05-07T14:50:23;2.10;;;1.30;;
12445;SDS011;6287;50.984;7.022;2023-05-07T14:52:51;1.40;;;1.30;;
12445;SDS011;6287;50.984;7.022;2023-05-07T14:55:16;2.97;;;1.13;;
12445;SDS011;6287;50.984;7.022;2023-05-07T14:57:42;1.23;;;1.08;;
12445;SDS011;6287;50.984;7.022;2023-05-07T15:00:07;1.30;;;1.20;;
12445;SDS011;6287;50.984;7.022;2023-05-07T15:02:37;1.23;;;1.13;;
12445;SDS011;6287;50.984;7.022;2023-05-07T15:05:03;1.10;;;1.10;;
12445;SDS011;6287;50.984;7.022;2023-05-07T15:07:32;1.40;;;1.02;;
12445;SDS011;6287;50.984;7.022;2023-05-07T15:10:01;1.50;;;1.40;;
12445;SDS011;6287;50.984;7.022;2023-05-07T15:12:29;1.20;;;1.10;;
12445;SDS011;6287;50.984;7.022;2023-05-07T15:14:55;2.75;;;1.20;;
12445;SDS011;6287;50.984;7.022;2023-05-07T15:17:25;1.20;;;1.10;;
12445;SDS011;6287;50.984;7.022;2023-05-07T15:19:51;1.35;;;1.15;;
12445;SDS011;6287;50.984;7.022;2023-05-07T15:22:16;1.50;;;1.40;;
12445;SDS011;6287;50.984;7.022;2023-05-07T15:24:47;1.60;;;1.50;;
12445;SDS011;6287;50.984;7.022;2023-05-07T15:27:15;1.42;;;1.33;;
12445;SDS011;6287;50.984;7.022;2023-05-07T15:29:43;1.83;;;1.30;;
12445;SDS011;6287;50.984;7.022;2023-05-07T15:32:13;1.50;;;1.40;;